Metar z połowy godziny Komunikat METAR ze strony awiacja.imgw.pl Metar G30 EPMB METAR EPMB 180830Z 30008KT 2500 BR BKN007 OVC010 04/03 Q1029 REDZ RMK 035 099 8/5=